Time;durP1;ratioP1;P1;durP2;ratioP2;P2;SDS_P1;SDS_P2;PMS_P1;PMS_P2;Temp;Humidity;BMP_temperature;BMP_pressure;BME280_temperature;BME280_humidity;BME280_pressure;Samples;Min_cycle;Max_cycle;Signal;HPM_P1;HPM_P2
2022/12/28 00:01:15;;;;;;;;;;;;;;;2.96;78.10;99129.22;7390692;19;19955;-71
2022/12/28 00:03:41;;;;;;;;;;;;;;;2.96;78.09;99121.41;7391579;19;19915;-71
2022/12/28 00:06:08;;;;;;;;;;;;;;;3.01;78.16;99114.13;7393851;19;20029;-70
2022/12/28 00:08:35;;;;;;;;;;;;;;;3.04;78.13;99116.56;7384836;19;19915;-71
2022/12/28 00:11:05;;;;;;;;;;;;;;;2.96;78.37;99100.47;7387625;19;19919;-70
2022/12/28 00:13:44;;;;;;;;;;;;;;;2.87;78.83;99103.66;7391423;19;19927;-71
2022/12/28 00:16:10;;;;;;;;;;;;;;;2.89;78.46;99109.59;7391982;19;19915;-71
2022/12/28 00:18:37;;;;;;;;;;;;;;;2.96;78.39;99103.09;7388386;19;19982;-72
2022/12/28 00:21:04;;;;;;;;;;;;;;;3.01;78.39;99097.59;7394914;19;19918;-71
2022/12/28 00:23:30;;;;;;;;;;;;;;;3.04;78.21;99094.81;7390548;19;19923;-72
2022/12/28 00:26:07;;;;;;;;;;;;;;;3.06;78.34;99074.66;7389604;19;19925;-72
2022/12/28 00:28:33;;;;;;;;;;;;;;;3.16;78.48;99078.41;7388734;19;19922;-71
2022/12/28 00:31:01;;;;;;;;;;;;;;;3.27;78.13;99088.22;7391370;19;20292;-72
2022/12/28 00:33:27;;;;;;;;;;;;;;;3.30;78.13;99085.41;7390956;19;19950;-71
2022/12/28 00:35:55;;;;;;;;;;;;;;;3.23;78.56;99084.94;7392131;19;19914;-72
2022/12/28 00:38:21;;;;;;;;;;;;;;;3.39;78.26;99082.22;7388650;19;19918;-71
2022/12/28 00:40:48;;;;;;;;;;;;;;;3.42;78.18;99082.06;7391153;19;20312;-71
2022/12/28 00:43:14;;;;;;;;;;;;;;;3.48;77.94;99086.06;7388895;19;20328;-71
2022/12/28 00:45:47;;;;;;;;;;;;;;;3.50;77.73;99077.19;7390891;19;19927;-71
2022/12/28 00:48:14;;;;;;;;;;;;;;;3.64;77.49;99084.19;7390154;19;19936;-70
2022/12/28 00:50:41;;;;;;;;;;;;;;;3.64;77.49;99078.97;7390448;19;19918;-71
2022/12/28 00:53:08;;;;;;;;;;;;;;;3.73;77.37;99075.75;7389850;19;19921;-71
2022/12/28 00:55:34;;;;;;;;;;;;;;;3.73;77.52;99073.16;7391522;19;20339;-70
2022/12/28 00:58:03;;;;;;;;;;;;;;;3.73;77.49;99064.47;7387323;19;19915;-71
2022/12/28 01:00:30;;;;;;;;;;;;;;;3.73;77.35;99061.84;7391415;19;20320;-70
2022/12/28 01:02:57;;;;;;;;;;;;;;;3.83;77.29;99062.94;7392351;19;20336;-70
2022/12/28 01:05:23;;;;;;;;;;;;;;;3.81;77.29;99064.81;7389913;19;19923;-70
2022/12/28 01:07:50;;;;;;;;;;;;;;;3.87;77.61;99063.59;7388866;19;19943;-71
2022/12/28 01:10:17;;;;;;;;;;;;;;;3.96;77.17;99063.84;7388640;19;19947;-71
2022/12/28 01:12:43;;;;;;;;;;;;;;;4.04;77.04;99045.03;7388704;19;20446;-70
2022/12/28 01:15:10;;;;;;;;;;;;;;;4.03;76.76;99042.50;7386446;19;19930;-70
2022/12/28 01:17:37;;;;;;;;;;;;;;;4.07;76.68;99038.78;7388728;19;19949;-70
2022/12/28 01:20:04;;;;;;;;;;;;;;;4.00;76.66;99033.06;7386854;19;20379;-70
2022/12/28 01:22:31;;;;;;;;;;;;;;;4.04;77.12;99031.94;7389141;19;19922;-70
2022/12/28 01:24:58;;;;;;;;;;;;;;;4.10;76.30;99028.09;7385058;19;19923;-70
2022/12/28 01:27:25;;;;;;;;;;;;;;;4.10;76.14;99017.63;7386960;19;19922;-70
2022/12/28 01:29:52;;;;;;;;;;;;;;;4.07;76.16;99023.91;7387368;19;19931;-70
2022/12/28 01:32:19;;;;;;;;;;;;;;;4.14;75.91;99016.50;7387202;19;19939;-70
2022/12/28 01:34:45;;;;;;;;;;;;;;;4.04;75.84;99015.41;7389136;19;19923;-71
2022/12/28 01:37:12;;;;;;;;;;;;;;;4.05;75.95;99019.69;7386402;19;20376;-70
2022/12/28 01:39:38;;;;;;;;;;;;;;;4.06;75.62;99021.41;7386119;19;20302;-70
2022/12/28 01:42:08;;;;;;;;;;;;;;;3.96;75.92;99019.34;7391335;19;19918;-71
2022/12/28 01:44:39;;;;;;;;;;;;;;;3.94;76.41;99007.28;7387691;19;19926;-71
2022/12/28 01:47:08;;;;;;;;;;;;;;;4.10;75.87;99007.16;7387754;19;20840;-71
2022/12/28 01:49:35;;;;;;;;;;;;;;;4.21;75.43;98999.44;7385163;19;19927;-70
2022/12/28 01:52:05;;;;;;;;;;;;;;;4.22;75.36;99001.13;7389278;19;19925;-70
2022/12/28 01:54:36;;;;;;;;;;;;;;;4.31;75.39;99002.28;7384558;19;20370;-70
2022/12/28 01:57:03;;;;;;;;;;;;;;;4.41;75.07;98998.13;7387313;19;19929;-70
2022/12/28 01:59:30;;;;;;;;;;;;;;;4.38;75.14;98993.09;7384973;19;19926;-70
2022/12/28 02:01:57;;;;;;;;;;;;;;;4.43;74.95;98987.56;7385957;19;19927;-70
2022/12/28 02:04:24;;;;;;;;;;;;;;;4.45;74.90;98983.91;7384351;19;19978;-70
2022/12/28 02:06:51;;;;;;;;;;;;;;;4.54;74.67;98982.44;7385613;19;20305;-70
2022/12/28 02:09:18;;;;;;;;;;;;;;;4.53;74.24;98970.25;7379747;19;19947;-69
2022/12/28 02:11:45;;;;;;;;;;;;;;;4.51;74.14;98959.91;7380170;19;19923;-70
2022/12/28 02:14:11;;;;;;;;;;;;;;;4.47;73.59;98957.56;7386356;19;19935;-70
2022/12/28 02:16:38;;;;;;;;;;;;;;;4.56;73.53;98959.59;7387128;19;19971;-70
2022/12/28 02:19:06;;;;;;;;;;;;;;;4.57;73.85;98966.50;7383647;19;19923;-69
2022/12/28 02:21:48;;;;;;;;;;;;;;;4.69;73.77;98967.47;7385647;19;19953;-70
2022/12/28 02:24:33;;;;;;;;;;;;;;;4.55;73.84;98965.75;7382669;19;19926;-69
2022/12/28 02:27:06;;;;;;;;;;;;;;;4.70;73.41;98953.41;7387488;19;19919;-70
2022/12/28 02:29:35;;;;;;;;;;;;;;;4.69;73.48;98947.34;7385520;19;19939;-70
2022/12/28 02:32:08;;;;;;;;;;;;;;;4.72;73.93;98952.38;7386361;19;19926;-70
2022/12/28 02:34:39;;;;;;;;;;;;;;;4.68;74.23;98942.19;7388819;19;19943;-69
2022/12/28 02:37:26;;;;;;;;;;;;;;;4.66;74.47;98939.69;7386784;19;19922;-70
2022/12/28 02:40:10;;;;;;;;;;;;;;;4.71;74.40;98936.72;7385181;19;19918;-70
2022/12/28 02:42:37;;;;;;;;;;;;;;;4.69;74.75;98921.13;7386448;19;19919;-71
2022/12/28 02:50:37;;;;;;;;;;;;;;;4.87;73.95;98918.16;7386394;19;19923;-70
2022/12/28 02:53:17;;;;;;;;;;;;;;;4.95;73.88;98921.09;7384221;19;19918;-70
2022/12/28 02:56:08;;;;;;;;;;;;;;;4.95;73.89;98903.59;7381925;19;19936;-69
2022/12/28 02:58:38;;;;;;;;;;;;;;;4.95;74.08;98898.34;7383558;19;19942;-69
2022/12/28 03:01:13;;;;;;;;;;;;;;;4.93;73.93;98897.63;7385710;19;20271;-70
2022/12/28 03:03:46;;;;;;;;;;;;;;;4.95;74.02;98889.63;7383669;19;20008;-70
2022/12/28 03:09:26;;;;;;;;;;;;;;;4.95;73.96;98871.28;7382082;19;19949;-70
2022/12/28 03:12:04;;;;;;;;;;;;;;;5.00;74.11;98874.41;7379557;19;19938;-70
2022/12/28 03:14:39;;;;;;;;;;;;;;;4.99;74.12;98881.44;7381940;19;19914;-70
2022/12/28 03:31:06;;;;;;;;;;;;;;;5.24;72.99;98880.56;7383456;19;19925;-69
2022/12/28 03:33:41;;;;;;;;;;;;;;;5.31;72.99;98877.47;7386542;19;19927;-69
2022/12/28 03:36:11;;;;;;;;;;;;;;;5.23;73.02;98870.16;7384814;19;19919;-70
2022/12/28 03:38:44;;;;;;;;;;;;;;;5.25;73.37;98871.72;7382043;19;19915;-70
2022/12/28 03:41:12;;;;;;;;;;;;;;;5.38;73.11;98876.09;7386345;19;19911;-70
2022/12/28 03:43:44;;;;;;;;;;;;;;;5.35;72.76;98873.69;7384665;19;19923;-70
2022/12/28 03:46:16;;;;;;;;;;;;;;;5.31;72.77;98862.56;7379707;19;20011;-69
2022/12/28 03:48:43;;;;;;;;;;;;;;;5.42;72.30;98856.56;7384569;19;19922;-69
2022/12/28 03:51:11;;;;;;;;;;;;;;;5.41;72.44;98862.75;7387284;19;20445;-70
2022/12/28 03:53:40;;;;;;;;;;;;;;;5.35;72.55;98850.09;7390807;19;19918;-70
2022/12/28 03:56:13;;;;;;;;;;;;;;;5.46;72.72;98845.72;7389359;19;20316;-69
2022/12/28 03:58:42;;;;;;;;;;;;;;;5.54;72.27;98846.97;7388037;19;19918;-70
2022/12/28 04:01:08;;;;;;;;;;;;;;;5.48;72.28;98843.00;7390576;19;19918;-70
2022/12/28 04:03:37;;;;;;;;;;;;;;;5.49;71.85;98831.53;7390383;19;19929;-70
2022/12/28 04:06:04;;;;;;;;;;;;;;;5.48;72.27;98828.09;7388690;19;19918;-70
2022/12/28 04:08:31;;;;;;;;;;;;;;;5.49;72.42;98828.91;7388114;19;20010;-70
2022/12/28 04:10:58;;;;;;;;;;;;;;;5.47;72.55;98828.19;7387557;19;20308;-70
2022/12/28 04:13:29;;;;;;;;;;;;;;;5.52;72.16;98828.69;7387230;19;19925;-70
2022/12/28 04:16:06;;;;;;;;;;;;;;;5.58;72.58;98819.53;7388811;19;19918;-70
2022/12/28 04:18:34;;;;;;;;;;;;;;;5.51;72.44;98821.78;7385490;19;19923;-70
2022/12/28 04:21:01;;;;;;;;;;;;;;;5.41;72.77;98818.97;7388519;19;19915;-71
2022/12/28 04:23:27;;;;;;;;;;;;;;;5.44;72.46;98824.00;7389105;19;20287;-70
2022/12/28 04:26:11;;;;;;;;;;;;;;;5.50;72.58;98812.22;7387933;19;19922;-70
2022/12/28 04:28:38;;;;;;;;;;;;;;;5.41;72.51;98815.53;7388310;19;19922;-69
2022/12/28 04:31:19;;;;;;;;;;;;;;;5.42;72.90;98818.03;7389170;19;20371;-69
2022/12/28 04:33:56;;;;;;;;;;;;;;;5.49;72.36;98800.88;7388976;19;19954;-69
2022/12/28 04:36:23;;;;;;;;;;;;;;;5.53;72.53;98801.50;7388736;19;19922;-71
2022/12/28 04:38:50;;;;;;;;;;;;;;;5.47;72.43;98796.69;7386846;19;19930;-70
2022/12/28 04:41:16;;;;;;;;;;;;;;;5.63;72.29;98797.22;7390714;19;20651;-70
2022/12/28 04:43:43;;;;;;;;;;;;;;;5.52;72.52;98799.81;7393450;19;19941;-71
2022/12/28 04:46:11;;;;;;;;;;;;;;;5.55;72.51;98793.50;7386307;19;19938;-70
2022/12/28 04:48:37;;;;;;;;;;;;;;;5.56;72.55;98798.66;7386304;19;19919;-70
2022/12/28 04:51:05;;;;;;;;;;;;;;;5.55;72.53;98789.09;7387798;19;20269;-69
2022/12/28 04:53:34;;;;;;;;;;;;;;;5.63;72.34;98791.16;7389381;19;19918;-69
2022/12/28 04:56:04;;;;;;;;;;;;;;;5.60;72.14;98796.63;7388893;19;19914;-70
2022/12/28 04:58:31;;;;;;;;;;;;;;;5.68;72.10;98795.09;7388261;19;20034;-70
2022/12/28 05:01:01;;;;;;;;;;;;;;;5.76;72.21;98801.56;7386568;19;19942;-70
2022/12/28 05:03:28;;;;;;;;;;;;;;;5.76;72.20;98801.56;7386078;19;19922;-70
2022/12/28 05:05:58;;;;;;;;;;;;;;;5.85;72.09;98801.72;7388647;19;19927;-70
2022/12/28 05:08:24;;;;;;;;;;;;;;;5.83;72.06;98789.66;7387357;19;19919;-70
2022/12/28 05:10:51;;;;;;;;;;;;;;;5.77;72.35;98790.13;7385378;19;19915;-70
2022/12/28 05:13:17;;;;;;;;;;;;;;;5.68;72.77;98783.78;7388164;19;19918;-70
2022/12/28 05:15:44;;;;;;;;;;;;;;;5.72;72.59;98786.06;7388396;19;19930;-71
2022/12/28 05:18:11;;;;;;;;;;;;;;;5.70;72.54;98785.34;7387390;19;19919;-71
2022/12/28 05:20:37;;;;;;;;;;;;;;;5.69;72.61;98788.91;7385623;19;19918;-71
2022/12/28 05:23:04;;;;;;;;;;;;;;;5.65;73.10;98784.00;7387779;19;19947;-71
2022/12/28 05:25:30;;;;;;;;;;;;;;;5.69;73.04;98782.84;7382887;19;20375;-71
2022/12/28 05:27:57;;;;;;;;;;;;;;;5.68;73.09;98781.16;7383644;19;19947;-70
2022/12/28 05:30:23;;;;;;;;;;;;;;;5.74;72.84;98780.72;7391197;19;19950;-70
2022/12/28 05:32:50;;;;;;;;;;;;;;;5.69;73.20;98783.66;7384246;19;19923;-70
2022/12/28 05:35:16;;;;;;;;;;;;;;;5.84;72.54;98784.28;7383841;19;19934;-70
2022/12/28 05:37:43;;;;;;;;;;;;;;;5.81;72.66;98778.44;7384245;19;19919;-70
2022/12/28 05:40:09;;;;;;;;;;;;;;;5.89;72.67;98781.31;7389589;19;20012;-70
2022/12/28 05:42:36;;;;;;;;;;;;;;;5.81;72.75;98783.69;7384418;19;19949;-70
2022/12/28 05:45:03;;;;;;;;;;;;;;;5.83;72.77;98769.50;7386103;19;20039;-70
2022/12/28 05:47:29;;;;;;;;;;;;;;;5.92;73.25;98775.81;7389304;19;20264;-70
2022/12/28 05:49:56;;;;;;;;;;;;;;;5.97;73.14;98783.41;7388876;19;19919;-70
2022/12/28 05:52:22;;;;;;;;;;;;;;;6.09;72.70;98787.72;7387961;19;19921;-69
2022/12/28 05:54:49;;;;;;;;;;;;;;;6.02;72.45;98783.88;7389271;19;19934;-70
2022/12/28 05:57:15;;;;;;;;;;;;;;;6.09;72.70;98782.47;7387489;19;19925;-70
2022/12/28 05:59:42;;;;;;;;;;;;;;;6.00;72.65;98783.16;7381007;19;19914;-70
2022/12/28 06:02:08;;;;;;;;;;;;;;;5.91;72.25;98776.78;7384764;19;19935;-70
2022/12/28 06:04:37;;;;;;;;;;;;;;;6.00;72.54;98770.84;7387733;19;20346;-70
2022/12/28 06:07:04;;;;;;;;;;;;;;;6.06;72.17;98780.09;7381895;19;19922;-70
2022/12/28 06:09:31;;;;;;;;;;;;;;;6.05;72.33;98773.97;7379662;19;19940;-70
2022/12/28 06:11:58;;;;;;;;;;;;;;;5.97;72.33;98773.72;7388023;19;19923;-70
2022/12/28 06:14:25;;;;;;;;;;;;;;;5.97;72.61;98770.28;7383768;19;20354;-70
2022/12/28 06:16:51;;;;;;;;;;;;;;;6.09;72.04;98769.34;7384496;19;19922;-69
2022/12/28 06:19:18;;;;;;;;;;;;;;;6.14;72.21;98764.56;7383576;19;19938;-70
2022/12/28 06:21:44;;;;;;;;;;;;;;;6.21;72.21;98764.91;7386508;19;19939;-70
2022/12/28 06:24:12;;;;;;;;;;;;;;;6.17;71.98;98774.00;7383472;19;19919;-70
2022/12/28 06:26:39;;;;;;;;;;;;;;;6.12;71.66;98764.69;7384832;19;19925;-70
2022/12/28 06:29:06;;;;;;;;;;;;;;;6.13;71.10;98762.88;7383803;19;20327;-70
2022/12/28 06:31:34;;;;;;;;;;;;;;;6.19;71.52;98767.69;7379954;19;19915;-70
2022/12/28 06:34:01;;;;;;;;;;;;;;;6.19;71.20;98766.81;7385553;19;19947;-71
2022/12/28 06:36:29;;;;;;;;;;;;;;;6.13;71.92;98763.75;7387990;19;19911;-71
2022/12/28 06:38:56;;;;;;;;;;;;;;;6.13;72.27;98761.13;7383947;19;19925;-71
2022/12/28 06:41:23;;;;;;;;;;;;;;;6.24;71.53;98765.53;7376625;19;20407;-71
2022/12/28 06:43:49;;;;;;;;;;;;;;;6.19;71.82;98757.19;7386128;19;19946;-71
2022/12/28 06:46:17;;;;;;;;;;;;;;;6.20;71.87;98750.13;7384304;19;20384;-71
2022/12/28 06:48:43;;;;;;;;;;;;;;;6.10;72.45;98749.97;7382133;19;19943;-71
2022/12/28 06:51:11;;;;;;;;;;;;;;;6.27;72.20;98748.69;7383962;19;19930;-71
2022/12/28 06:53:37;;;;;;;;;;;;;;;6.28;71.83;98753.00;7384359;19;19914;-71
2022/12/28 06:56:05;;;;;;;;;;;;;;;6.29;71.89;98749.41;7385280;19;20010;-71
2022/12/28 06:58:31;;;;;;;;;;;;;;;6.44;71.37;98742.94;7382995;19;19915;-71
2022/12/28 07:01:12;;;;;;;;;;;;;;;6.41;71.41;98740.56;7381502;19;19922;-71
2022/12/28 07:03:39;;;;;;;;;;;;;;;6.45;71.73;98735.88;7385517;19;20425;-71
2022/12/28 07:06:06;;;;;;;;;;;;;;;6.27;71.39;98739.03;7383487;19;19998;-72
2022/12/28 07:08:32;;;;;;;;;;;;;;;6.41;71.31;98740.56;7382627;19;19922;-70
2022/12/28 07:11:02;;;;;;;;;;;;;;;6.47;71.44;98737.44;7380893;19;19947;-71
2022/12/28 07:13:29;;;;;;;;;;;;;;;6.45;70.64;98731.50;7383861;19;20343;-71
2022/12/28 07:15:55;;;;;;;;;;;;;;;6.55;70.92;98728.94;7385087;19;20816;-71
2022/12/28 07:18:22;;;;;;;;;;;;;;;6.47;71.16;98729.56;7384221;19;19939;-71
2022/12/28 07:20:48;;;;;;;;;;;;;;;6.59;71.06;98725.13;7383281;19;19919;-71
2022/12/28 07:23:15;;;;;;;;;;;;;;;6.40;71.17;98723.13;7380520;19;19958;-71
2022/12/28 07:25:42;;;;;;;;;;;;;;;6.34;70.25;98719.16;7385297;19;19915;-72
2022/12/28 07:28:08;;;;;;;;;;;;;;;6.48;70.21;98715.47;7390304;19;19925;-71
2022/12/28 07:30:35;;;;;;;;;;;;;;;6.43;70.21;98717.63;7392361;19;19919;-72
2022/12/28 07:33:03;;;;;;;;;;;;;;;6.62;70.21;98722.25;7390431;19;20279;-70
2022/12/28 07:35:29;;;;;;;;;;;;;;;6.63;69.88;98718.66;7392736;19;19923;-71
2022/12/28 07:37:56;;;;;;;;;;;;;;;6.73;69.63;98710.88;7390636;19;19955;-71
2022/12/28 07:40:22;;;;;;;;;;;;;;;6.67;70.36;98709.59;7392792;19;20268;-71
2022/12/28 07:42:49;;;;;;;;;;;;;;;6.49;69.82;98711.06;7393526;19;19918;-72
2022/12/28 07:45:15;;;;;;;;;;;;;;;6.59;69.64;98712.00;7392994;19;19926;-71
2022/12/28 07:47:42;;;;;;;;;;;;;;;6.75;69.44;98711.59;7389108;19;19921;-71
2022/12/28 07:50:09;;;;;;;;;;;;;;;6.85;69.21;98717.78;7393319;19;20403;-70
2022/12/28 07:52:36;;;;;;;;;;;;;;;6.81;69.54;98716.34;7392066;19;22272;-70
2022/12/28 07:55:03;;;;;;;;;;;;;;;6.94;69.11;98711.78;7392526;19;19918;-71
2022/12/28 07:57:29;;;;;;;;;;;;;;;6.86;69.78;98714.19;7390771;19;19922;-70
2022/12/28 07:59:56;;;;;;;;;;;;;;;6.84;69.36;98715.28;7390418;19;19946;-70
2022/12/28 08:02:22;;;;;;;;;;;;;;;6.83;69.75;98706.56;7390658;19;20382;-70
2022/12/28 08:04:49;;;;;;;;;;;;;;;6.73;69.72;98703.81;7388439;19;19918;-70
2022/12/28 08:07:17;;;;;;;;;;;;;;;6.90;69.63;98709.50;7385038;19;19926;-70
2022/12/28 08:09:44;;;;;;;;;;;;;;;6.91;69.41;98693.63;7386178;19;19919;-69
2022/12/28 08:12:10;;;;;;;;;;;;;;;6.82;69.93;98702.28;7385448;19;19922;-70
2022/12/28 08:14:37;;;;;;;;;;;;;;;6.85;69.41;98701.19;7388194;19;19947;-70
2022/12/28 08:17:03;;;;;;;;;;;;;;;6.89;69.86;98698.16;7386836;19;19931;-71
2022/12/28 08:19:30;;;;;;;;;;;;;;;6.93;70.13;98696.13;7386661;19;19951;-71
2022/12/28 08:21:56;;;;;;;;;;;;;;;6.89;70.00;98698.16;7388183;19;19919;-71
2022/12/28 08:24:23;;;;;;;;;;;;;;;6.82;70.23;98692.59;7386984;19;19926;-71
2022/12/28 08:26:50;;;;;;;;;;;;;;;6.88;70.14;98685.16;7388406;19;20002;-71
2022/12/28 08:29:18;;;;;;;;;;;;;;;6.84;69.94;98689.81;7385554;19;19918;-71
2022/12/28 08:31:44;;;;;;;;;;;;;;;6.94;69.89;98685.47;7388012;19;19922;-71
2022/12/28 08:34:12;;;;;;;;;;;;;;;6.96;70.52;98678.31;7389934;19;19926;-71
2022/12/28 08:36:39;;;;;;;;;;;;;;;6.97;69.94;98679.97;7385535;19;19945;-71
2022/12/28 08:39:06;;;;;;;;;;;;;;;7.00;70.22;98682.38;7383641;19;19926;-71
2022/12/28 08:41:32;;;;;;;;;;;;;;;7.10;69.68;98676.34;7389081;19;19943;-71
2022/12/28 08:43:59;;;;;;;;;;;;;;;7.12;69.43;98672.63;7388219;19;20288;-71
2022/12/28 08:46:26;;;;;;;;;;;;;;;7.17;69.32;98673.06;7385504;19;20399;-71
2022/12/28 08:48:53;;;;;;;;;;;;;;;7.19;68.77;98672.97;7382152;19;19915;-71
2022/12/28 08:51:21;;;;;;;;;;;;;;;7.31;69.20;98678.97;7386854;19;19958;-72
2022/12/28 08:53:47;;;;;;;;;;;;;;;7.42;68.90;98668.38;7386219;19;19907;-71
2022/12/28 08:56:18;;;;;;;;;;;;;;;7.47;68.75;98668.84;7384739;19;19927;-72
2022/12/28 08:58:45;;;;;;;;;;;;;;;7.64;68.32;98665.63;7388463;19;19919;-71
2022/12/28 09:01:15;;;;;;;;;;;;;;;7.70;68.33;98664.28;7387550;19;19918;-71
2022/12/28 09:03:46;;;;;;;;;;;;;;;7.67;68.16;98672.44;7380097;19;19915;-71
2022/12/28 09:06:13;;;;;;;;;;;;;;;7.78;67.28;98674.16;7385329;19;19959;-70
2022/12/28 09:08:40;;;;;;;;;;;;;;;7.71;67.68;98673.81;7380253;19;19927;-72
2022/12/28 09:11:11;;;;;;;;;;;;;;;7.98;66.86;98675.06;7383843;19;19911;-71
2022/12/28 09:13:38;;;;;;;;;;;;;;;7.91;66.86;98672.97;7385224;19;19910;-71
2022/12/28 09:16:10;;;;;;;;;;;;;;;8.02;66.31;98666.78;7390409;19;20252;-71
2022/12/28 09:18:37;;;;;;;;;;;;;;;8.17;67.48;98674.34;7387019;19;19927;-70
2022/12/28 09:21:07;;;;;;;;;;;;;;;8.32;66.85;98667.72;7382200;19;19923;-70
2022/12/28 09:23:34;;;;;;;;;;;;;;;8.32;66.57;98665.94;7386615;19;19918;-70
2022/12/28 09:26:07;;;;;;;;;;;;;;;8.32;66.48;98667.72;7388024;19;19923;-70
2022/12/28 09:28:36;;;;;;;;;;;;;;;8.22;66.03;98664.22;7387128;19;20462;-72
2022/12/28 09:31:06;;;;;;;;;;;;;;;8.28;64.67;98651.34;7387845;19;19944;-73
2022/12/28 09:36:41;;;;;;;;;;;;;;;8.65;65.14;98658.66;7383825;19;19943;-71
2022/12/28 09:39:11;;;;;;;;;;;;;;;8.59;65.33;98653.94;7384239;19;19930;-70
2022/12/28 09:41:37;;;;;;;;;;;;;;;8.65;64.68;98658.66;7389493;19;19911;-71
2022/12/28 09:44:09;;;;;;;;;;;;;;;8.67;65.05;98651.47;7388220;19;19918;-71
2022/12/28 09:46:35;;;;;;;;;;;;;;;8.63;64.63;98644.78;7385445;19;19919;-71
2022/12/28 09:49:02;;;;;;;;;;;;;;;8.51;64.20;98648.53;7385625;19;19915;-72
2022/12/28 09:51:33;;;;;;;;;;;;;;;8.54;64.87;98645.59;7387988;19;19918;-72
2022/12/28 09:54:02;;;;;;;;;;;;;;;8.50;64.80;98644.19;7373830;19;19926;-71
2022/12/28 09:56:31;;;;;;;;;;;;;;;8.58;64.72;98641.72;7386641;19;19914;-72
2022/12/28 09:58:58;;;;;;;;;;;;;;;8.69;64.68;98638.13;7386371;19;19923;-73
2022/12/28 10:01:25;;;;;;;;;;;;;;;8.77;64.54;98647.03;7380889;19;19943;-71
2022/12/28 10:03:51;;;;;;;;;;;;;;;8.86;64.47;98647.16;7387244;19;19915;-71
2022/12/28 10:06:22;;;;;;;;;;;;;;;9.01;64.56;98640.50;7387117;19;19952;-70
2022/12/28 10:08:50;;;;;;;;;;;;;;;8.96;64.41;98645.38;7378920;19;20387;-71
2022/12/28 10:11:18;;;;;;;;;;;;;;;9.06;64.58;98640.94;7376607;19;19926;-72
2022/12/28 10:13:44;;;;;;;;;;;;;;;9.02;63.94;98644.81;7382959;19;20485;-73
2022/12/28 10:16:21;;;;;;;;;;;;;;;9.29;63.30;98645.91;7385458;19;20364;-71
2022/12/28 10:18:48;;;;;;;;;;;;;;;9.40;63.36;98632.53;7384136;19;19918;-72
2022/12/28 10:21:17;;;;;;;;;;;;;;;9.54;63.11;98621.53;7385907;19;20273;-71
2022/12/28 10:23:58;;;;;;;;;;;;;;;9.61;62.94;98616.50;7384625;19;19914;-71
2022/12/28 10:26:49;;;;;;;;;;;;;;;9.83;63.38;98617.97;7380597;19;20343;-71
2022/12/28 10:29:17;;;;;;;;;;;;;;;9.93;62.70;98604.72;7383636;19;20015;-71
2022/12/28 10:31:43;;;;;;;;;;;;;;;9.70;62.07;98605.09;7386604;19;19934;-71
2022/12/28 10:34:14;;;;;;;;;;;;;;;9.52;62.53;98605.00;7383639;19;19919;-72
2022/12/28 10:36:43;;;;;;;;;;;;;;;9.54;63.45;98591.66;7388905;19;19923;-71
2022/12/28 10:39:13;;;;;;;;;;;;;;;9.45;62.67;98593.31;7384208;19;19923;-71
2022/12/28 10:41:44;;;;;;;;;;;;;;;9.31;62.35;98596.44;7383684;19;19918;-70
2022/12/28 10:44:30;;;;;;;;;;;;;;;9.23;64.13;98597.97;7378405;19;20238;-70
2022/12/28 10:47:14;;;;;;;;;;;;;;;9.11;63.66;98595.63;7384815;19;20357;-71
2022/12/28 10:49:47;;;;;;;;;;;;;;;9.11;64.30;98585.91;7380732;19;19919;-70
2022/12/28 10:52:33;;;;;;;;;;;;;;;9.11;64.18;98587.69;7384815;19;21316;-70
2022/12/28 10:55:14;;;;;;;;;;;;;;;8.99;64.68;98581.75;7385953;19;19918;-72
2022/12/28 10:57:42;;;;;;;;;;;;;;;9.00;64.42;98581.63;7380613;19;20350;-70
2022/12/28 11:00:28;;;;;;;;;;;;;;;9.17;64.31;98581.88;7381332;19;19921;-71
2022/12/28 11:02:55;;;;;;;;;;;;;;;9.10;64.24;98573.69;7391665;19;19929;-70
2022/12/28 11:05:25;;;;;;;;;;;;;;;9.25;65.07;98570.63;7392530;19;19991;-70
2022/12/28 11:08:04;;;;;;;;;;;;;;;9.28;65.33;98559.75;7389045;19;19923;-71
2022/12/28 11:10:31;;;;;;;;;;;;;;;9.46;64.81;98560.69;7389068;19;19915;-71
2022/12/28 11:12:59;;;;;;;;;;;;;;;9.60;63.35;98552.28;7387181;19;19951;-71
2022/12/28 11:15:32;;;;;;;;;;;;;;;9.74;63.62;98548.34;7388023;19;19937;-70
2022/12/28 11:18:10;;;;;;;;;;;;;;;9.82;64.04;98540.53;7385639;19;20011;-70
2022/12/28 11:20:37;;;;;;;;;;;;;;;9.68;63.88;98541.81;7390082;19;19918;-71
2022/12/28 11:23:04;;;;;;;;;;;;;;;9.85;63.25;98536.75;7388401;19;20376;-71
2022/12/28 11:25:33;;;;;;;;;;;;;;;10.18;63.09;98524.72;7392122;19;19923;-70
2022/12/28 11:28:11;;;;;;;;;;;;;;;10.27;61.86;98526.50;7389483;19;19922;-70
2022/12/28 11:30:38;;;;;;;;;;;;;;;10.28;61.50;98511.47;7392615;19;19952;-72
2022/12/28 11:33:08;;;;;;;;;;;;;;;10.18;62.07;98513.31;7389979;19;19919;-72
2022/12/28 11:35:36;;;;;;;;;;;;;;;10.07;62.53;98511.72;7389438;19;20328;-71
2022/12/28 11:38:04;;;;;;;;;;;;;;;9.97;62.49;98514.41;7390578;19;19926;-70
2022/12/28 11:40:44;;;;;;;;;;;;;;;9.95;63.30;98508.44;7396245;19;19926;-71
2022/12/28 11:43:29;;;;;;;;;;;;;;;9.82;62.93;98503.53;7392899;19;19919;-69
2022/12/28 11:45:56;;;;;;;;;;;;;;;9.92;63.46;98498.16;7390446;19;20199;-71
2022/12/28 11:48:41;;;;;;;;;;;;;;;10.02;64.05;98496.28;7386988;19;19953;-71
2022/12/28 11:51:21;;;;;;;;;;;;;;;10.15;63.31;98497.75;7390092;19;20396;-70
2022/12/28 11:53:49;;;;;;;;;;;;;;;10.10;63.22;98488.44;7392281;19;19925;-70
2022/12/28 11:56:19;;;;;;;;;;;;;;;10.10;63.36;98488.44;7394636;19;19933;-70
2022/12/28 11:58:47;;;;;;;;;;;;;;;10.04;63.25;98491.69;7389675;19;19915;-70
2022/12/28 12:01:27;;;;;;;;;;;;;;;10.28;62.82;98482.38;7386429;19;19976;-72
2022/12/28 12:03:57;;;;;;;;;;;;;;;10.27;63.10;98478.06;7390135;19;19918;-72
2022/12/28 12:07:00;;;;;;;;;;;;;;;10.22;61.92;98475.03;7387500;19;19918;-71
2022/12/28 12:09:31;;;;;;;;;;;;;;;10.33;62.87;98472.19;7386771;19;19911;-72
2022/12/28 12:11:58;;;;;;;;;;;;;;;10.35;62.60;98458.78;7391060;19;19922;-71
2022/12/28 12:14:31;;;;;;;;;;;;;;;10.49;62.52;98460.91;7387956;19;21119;-71
2022/12/28 12:17:19;;;;;;;;;;;;;;;10.46;62.44;98454.09;7392310;19;20324;-70
2022/12/28 12:19:47;;;;;;;;;;;;;;;10.48;62.07;98460.09;7387470;19;19918;-71
2022/12/28 12:22:13;;;;;;;;;;;;;;;10.34;62.18;98455.31;7386031;19;20363;-72
2022/12/28 12:24:41;;;;;;;;;;;;;;;10.15;62.81;98448.34;7381679;19;19922;-72
2022/12/28 12:27:13;;;;;;;;;;;;;;;10.15;63.42;98451.00;7386998;19;19922;-72
2022/12/28 12:29:43;;;;;;;;;;;;;;;9.89;63.50;98446.44;7384004;19;19922;-71
2022/12/28 12:32:28;;;;;;;;;;;;;;;9.82;63.45;98447.19;7383555;19;20361;-71
2022/12/28 12:34:56;;;;;;;;;;;;;;;9.75;64.31;98427.66;7386829;19;19927;-70
2022/12/28 12:37:46;;;;;;;;;;;;;;;9.61;64.63;98429.81;7382904;19;19915;-69
2022/12/28 12:40:20;;;;;;;;;;;;;;;9.66;64.53;98430.19;7381613;19;19929;-70
2022/12/28 12:42:56;;;;;;;;;;;;;;;9.58;65.08;98430.09;7374391;19;19935;-70
2022/12/28 12:45:35;;;;;;;;;;;;;;;9.55;64.50;98427.75;7389316;19;19918;-70
2022/12/28 12:48:15;;;;;;;;;;;;;;;9.45;64.93;98416.41;7385507;19;20383;-70
2022/12/28 12:50:53;;;;;;;;;;;;;;;9.58;65.21;98410.78;7386593;19;20494;-69
2022/12/28 12:53:24;;;;;;;;;;;;;;;9.57;65.29;98407.31;7388854;19;19914;-70
2022/12/28 12:56:00;;;;;;;;;;;;;;;9.54;65.76;98399.69;7382630;19;19933;-70
2022/12/28 12:58:39;;;;;;;;;;;;;;;9.39;64.80;98401.97;7381004;19;19915;-70
2022/12/28 13:01:15;;;;;;;;;;;;;;;9.39;65.15;98409.06;7390998;19;19938;-70
2022/12/28 13:03:43;;;;;;;;;;;;;;;9.41;65.35;98401.84;7389337;19;19987;-69
2022/12/28 13:06:13;;;;;;;;;;;;;;;9.38;65.09;98397.69;7386221;19;19923;-70
2022/12/28 13:09:01;;;;;;;;;;;;;;;9.57;64.66;98402.03;7385736;19;19918;-70
2022/12/28 13:11:32;;;;;;;;;;;;;;;9.60;64.53;98385.88;7390162;19;19918;-70
2022/12/28 13:13:58;;;;;;;;;;;;;;;9.56;64.33;98387.16;7381100;19;19978;-71
2022/12/28 13:16:27;;;;;;;;;;;;;;;9.51;64.67;98378.84;7384513;19;19918;-71
2022/12/28 13:18:58;;;;;;;;;;;;;;;9.70;64.85;98380.53;7386579;19;19929;-70
2022/12/28 13:21:26;;;;;;;;;;;;;;;9.81;64.31;98377.66;7388785;19;19943;-70
2022/12/28 13:23:53;;;;;;;;;;;;;;;9.85;64.56;98375.56;7378554;19;19930;-70
2022/12/28 13:26:27;;;;;;;;;;;;;;;9.80;63.76;98380.47;7385509;19;19925;-70
2022/12/28 13:28:58;;;;;;;;;;;;;;;9.70;64.30;98366.50;7386613;19;19944;-70
2022/12/28 13:31:48;;;;;;;;;;;;;;;9.62;64.52;98373.34;7383747;19;19939;-70
2022/12/28 13:34:16;;;;;;;;;;;;;;;9.71;64.40;98371.63;7385394;19;19923;-70